Otwell, Indiana
Current Conditions -  °F | °C
As of 7:35 PM on Monday 24 Nov 2014 (Local Time) from KHNB Reporting Station
Overcast Overcast  
Wind Chill: 37°   Ceiling: 7000
Heat Index: 43°   Visibility: 10mi
Dew Point: 32°   Wind: 10mph
Humidity: 66%   Direction: 300°WNW
Pressure: 29.94"   Gusts: NA
Location:  38.45°N, 87.09°W
Report Text: KHNB 250135Z AUTO 30009KT 10SM FEW032 OVC070 06/00 A2994 RMK AO1
Loading
Personal Weather Stations






























Interactive Weather Map New forecast layout! Learn more

10-Day Weather Forecast

Advertisements
Track Severe Weather on mobile